Walnut Hill, Virginia
Current Conditions -  °F | °C
As of 8:15 AM on Thursday 27 Nov 2014 (Local Time) from KPTB Reporting Station
Light Rain Light Rain  
Wind Chill: 40°   Ceiling: 200
Heat Index: 40°   Visibility: 5mi
Dew Point: 40°   Wind: 0mph
Humidity: 99%   Direction: NA
Pressure: 30.05"   Gusts: NA
Location:  37.135°N, 77.3913°W
Report Text: KPTB 271315Z AUTO 00000KT 5SM -RA BKN002 BKN012 OVC042 05/05 A3005 RMK AO2 T00460045
Loading
Personal Weather Stations






























Interactive Weather Map New forecast layout! Learn more

10-Day Weather Forecast

Advertisements
Track Severe Weather on mobile